首页
METAR-TAF:

METAR-TAF

机场 :

阿根廷港, 福克兰群岛

纬度: 51-49S, 经度: 058-27W, 海拔: 74米

当前天气观测

该预报发布于41分钟前的20:50 UTC
风速6节,风向西转西北
温度 0°C
湿度 93%
气压 1000 hPa
能见度10公里或以上
1500米以下无云,无积雨云

METAR: EGYP 252050Z 30006KT CAVOK 00/M01 Q1000

时间: 18:31 (21:31 UTC)

预报

该预报发布于1小时和58分钟前的19:33 UTC
预报有效从25日的 21点(UTC)到 26日的 15点(UTC)
风速8节,风向西
能见度10公里或以上
少量云层高于1800英尺
几率 40% :
短暂存在
从 25日的 21点(UTC)到 26日的 06点(UTC)
散云层高于1800英尺
成为
从 26日的 06点(UTC)到 26日的 09点(UTC)
阴天层高于1800英尺
成为
从 26日的 09点(UTC)到 26日的 12点(UTC)
风速15节,风向东转东南,有时为25节阵风
短暂存在
从 26日的 09点(UTC)到 26日的 12点(UTC)
能見度: 5000
多云层高于500英尺
几率 30% :
短暂存在
从 26日的 09点(UTC)到 26日的 12点(UTC)
能見度: 2000
散云层高于300英尺
雨, 毛毛雨
短暂存在
从 26日的 12点(UTC)到 26日的 15点(UTC)
能見度: 4000
多云层高于500英尺
阵雨, 雪
几率 30% :
短暂存在
从 26日的 12点(UTC)到 26日的 15点(UTC)
能見度: 1500
多云层高于200英尺
阵雪,

TAF: EGYP 251933Z 2521/2615 28008KT 9999 FEW018 PROB40 TEMPO 2521/2606 SCT018 BECMG 2606/2609 OVC018 BECMG 2609/2612 12015G25KT TEMPO 2609/2612 5000 RA BKN005 PROB30 TEMPO 2609/2612 2000 RADZ SCT003 TEMPO 2612/2615 4000 SHRASN BKN005 PROB30 TEMPO 2612/2615 1500 SHSN BKN002

超过4000个机场的气象观测和天气预报(METAR&TAF报告)。

可查询的气象台以黄色和红色小点在地图上表示。

将鼠标移到小点上方,可查看气象台名称。

然后点击查看天气观测和预报。

如需切换地图:点击带黑十字的绿色按钮放大地图;点击带横线的绿色按钮缩小地图;或者点击绿色箭头查看邻近地区的地图。


METAR-TAF: